Time;durP1;ratioP1;P1;durP2;ratioP2;P2;SDS_P1;SDS_P2;PMS_P1;PMS_P2;Temp;Humidity;BMP_temperature;BMP_pressure;BME280_temperature;BME280_humidity;BME280_pressure;Samples;Min_cycle;Max_cycle;Signal;HPM_P1;HPM_P2
2021/07/20 00:00:45;;;;;;;33.80;18.20;;;;;;;26.26;53.89;98340.38;4994056;28;20111;-75
2021/07/20 00:03:12;;;;;;;31.60;17.40;;;;;;;26.29;53.68;98339.53;4994894;28;20050;-75
2021/07/20 00:05:41;;;;;;;42.90;18.53;;;;;;;26.31;53.89;98340.72;5010184;28;20045;-74
2021/07/20 00:08:09;;;;;;;40.92;19.10;;;;;;;26.27;53.96;98323.13;5010076;28;20045;-75
2021/07/20 00:10:38;;;;;;;40.70;19.33;;;;;;;26.38;53.94;98339.03;5011068;28;20482;-76
2021/07/20 00:13:06;;;;;;;33.33;18.67;;;;;;;26.37;54.06;98341.03;5010793;28;20057;-75
2021/07/20 00:15:33;;;;;;;37.30;19.10;;;;;;;26.41;54.11;98347.41;5006600;28;20115;-75
2021/07/20 00:18:03;;;;;;;39.08;20.48;;;;;;;26.42;53.83;98351.78;4992704;28;20073;-76
2021/07/20 00:20:29;;;;;;;40.50;21.73;;;;;;;26.42;53.57;98340.59;5009851;28;20058;-75
2021/07/20 00:22:57;;;;;;;40.72;22.75;;;;;;;26.50;53.70;98349.69;5009500;28;20100;-74
2021/07/20 00:25:23;;;;;;;46.72;25.58;;;;;;;26.51;53.40;98348.47;5000147;28;20129;-75
2021/07/20 00:27:49;;;;;;;46.25;25.90;;;;;;;26.51;53.40;98353.28;5011620;28;20041;-75
2021/07/20 00:30:16;;;;;;;47.40;25.13;;;;;;;26.55;53.05;98354.06;5007402;28;20046;-75
2021/07/20 00:32:43;;;;;;;48.33;23.13;;;;;;;26.56;53.27;98358.44;4988936;28;20050;-76
2021/07/20 00:35:11;;;;;;;45.00;23.40;;;;;;;26.48;53.09;98338.13;5010109;28;20085;-73
2021/07/20 00:37:37;;;;;;;45.67;21.38;;;;;;;26.56;52.68;98356.41;5010254;28;20101;-75
2021/07/20 00:40:09;;;;;;;38.92;20.17;;;;;;;26.57;52.87;98358.00;5009166;28;20108;-75
2021/07/20 00:42:36;;;;;;;37.67;19.23;;;;;;;26.55;52.61;98354.81;4993038;28;20050;-75
2021/07/20 00:45:05;;;;;;;35.95;17.95;;;;;;;26.50;52.59;98346.91;5010711;28;20077;-75
2021/07/20 00:47:32;;;;;;;34.55;16.58;;;;;;;26.56;52.64;98350.81;5007136;28;20056;-75
2021/07/20 00:49:59;;;;;;;;;;;;;;;26.51;52.55;98356.06;5007412;28;20551;-75
2021/07/20 00:52:25;;;;;;;33.92;15.88;;;;;;;26.48;52.34;98354.94;5010069;28;19925;-75
2021/07/20 00:54:53;;;;;;;32.63;16.02;;;;;;;26.40;52.40;98348.63;4993843;28;20104;-75
2021/07/20 00:57:22;;;;;;;31.55;15.75;;;;;;;26.38;52.30;98344.63;4991983;28;20125;-74
2021/07/20 00:59:48;;;;;;;27.48;15.35;;;;;;;26.37;52.61;98352.22;5002430;28;20038;-74
2021/07/20 01:02:15;;;;;;;27.35;14.55;;;;;;;26.31;52.55;98345.50;5005477;28;20498;-75
2021/07/20 01:04:41;;;;;;;34.28;16.50;;;;;;;26.30;52.59;98343.91;5003800;28;20324;-75
2021/07/20 01:07:08;;;;;;;34.85;16.50;;;;;;;26.13;52.52;98343.66;5011950;28;20049;-75
2021/07/20 01:09:35;;;;;;;28.92;15.10;;;;;;;26.19;52.62;98344.81;4975782;28;20046;-75
2021/07/20 01:12:03;;;;;;;29.00;15.27;;;;;;;26.25;52.59;98333.19;4994070;28;20085;-76
2021/07/20 01:14:42;;;;;;;32.00;16.63;;;;;;;26.16;52.37;98322.44;4991879;28;20506;-75
2021/07/20 01:17:10;;;;;;;33.13;16.23;;;;;;;26.30;51.99;98333.53;5010941;28;20457;-74
2021/07/20 01:19:37;;;;;;;;;;;;;;;26.31;52.44;98337.91;5021292;28;20042;-74
2021/07/20 01:22:11;;;;;;;36.63;16.13;;;;;;;26.31;52.51;98328.69;5012946;28;20483;-74
2021/07/20 01:24:38;;;;;;;36.58;18.25;;;;;;;26.30;52.32;98333.53;5013490;28;20493;-74
2021/07/20 01:27:05;;;;;;;38.25;18.77;;;;;;;26.27;52.03;98328.72;5013232;28;20049;-74
2021/07/20 01:29:31;;;;;;;33.15;17.55;;;;;;;26.29;51.99;98329.09;4995763;28;20104;-73
2021/07/20 01:32:02;;;;;;;28.88;16.25;;;;;;;26.28;51.96;98321.91;5023696;28;20128;-74
2021/07/20 01:34:30;;;;;;;27.23;15.35;;;;;;;26.31;51.99;98314.69;4996556;28;20080;-74
2021/07/20 01:36:57;;;;;;;30.08;16.08;;;;;;;26.25;51.70;98319.97;5007831;28;20065;-76
2021/07/20 01:39:25;;;;;;;32.08;15.40;;;;;;;26.26;51.45;98321.53;5013286;28;20084;-74
2021/07/20 01:41:55;;;;;;;33.22;15.48;;;;;;;26.26;51.49;98326.38;4997057;28;20548;-74
2021/07/20 01:44:23;;;;;;;39.72;15.85;;;;;;;26.27;51.82;98325.94;4993069;28;20136;-74
2021/07/20 01:46:55;;;;;;;31.85;15.25;;;;;;;26.26;51.35;98332.75;4999252;28;20045;-75
2021/07/20 01:49:25;;;;;;;32.25;15.90;;;;;;;26.27;51.38;98323.13;4978642;28;20061;-74
2021/07/20 01:52:07;;;;;;;35.22;15.15;;;;;;;26.36;51.41;98335.84;4998720;28;20050;-75
2021/07/20 01:54:35;;;;;;;32.30;14.70;;;;;;;26.38;51.23;98331.44;5011189;28;20081;-75
2021/07/20 01:57:04;;;;;;;31.85;14.73;;;;;;;26.41;50.83;98321.38;5013513;28;20504;-73
2021/07/20 01:59:49;;;;;;;26.17;14.45;;;;;;;26.38;50.88;98325.84;5012841;28;20187;-73
2021/07/20 02:02:51;;;;;;;;;;;;;;;26.41;50.73;98330.59;5012629;28;20057;-74
2021/07/20 02:08:28;;;;;;;23.85;14.95;;;;;;;26.32;50.64;98319.88;5013036;28;20049;-75
2021/07/20 02:11:03;;;;;;;30.08;13.65;;;;;;;26.35;50.32;98323.06;4996364;28;20137;-74
2021/07/20 02:13:55;;;;;;;28.60;15.00;;;;;;;26.38;50.74;98325.84;5005455;28;20116;-74
2021/07/20 02:16:47;;;;;;;29.05;13.98;;;;;;;26.39;50.29;98324.63;4995143;28;20045;-74
2021/07/20 02:19:16;;;;;;;27.27;14.10;;;;;;;26.42;50.23;98329.38;5011660;28;20042;-75
2021/07/20 02:21:59;;;;;;;27.75;14.38;;;;;;;26.41;50.17;98324.19;4996908;28;20119;-76
2021/07/20 02:24:28;;;;;;;31.58;14.18;;;;;;;26.43;50.25;98336.56;5011387;28;20410;-75
2021/07/20 02:26:55;;;;;;;29.95;13.75;;;;;;;26.46;50.23;98335.72;5013341;28;20054;-76
2021/07/20 02:29:24;;;;;;;31.63;14.68;;;;;;;26.46;50.23;98332.91;5011076;28;20494;-75
2021/07/20 02:31:54;;;;;;;29.75;13.80;;;;;;;26.50;50.03;98338.50;5009141;28;20046;-75
2021/07/20 02:34:21;;;;;;;26.98;14.40;;;;;;;26.52;49.99;98343.66;4995244;28;20046;-74
2021/07/20 02:36:50;;;;;;;25.13;13.50;;;;;;;26.49;49.94;98345.31;4995224;28;20049;-75
2021/07/20 02:39:19;;;;;;;31.45;13.90;;;;;;;26.54;50.09;98346.84;5009242;28;20054;-74
2021/07/20 02:41:48;;;;;;;24.75;13.55;;;;;;;26.54;49.72;98341.25;5004715;28;20100;-73
2021/07/20 02:44:15;;;;;;;26.30;13.07;;;;;;;26.57;49.78;98351.63;5013469;28;20050;-73
2021/07/20 02:46:44;;;;;;;27.10;13.90;;;;;;;26.58;49.84;98342.00;5010935;28;20052;-75
2021/07/20 02:49:16;;;;;;;24.42;13.25;;;;;;;26.62;49.69;98337.13;5010903;28;20057;-75
2021/07/20 02:51:44;;;;;;;30.15;13.60;;;;;;;26.61;49.49;98338.34;5013556;28;20088;-74
2021/07/20 02:54:12;;;;;;;26.45;12.80;;;;;;;26.53;49.48;98320.03;4994829;28;20056;-74
2021/07/20 02:56:41;;;;;;;28.75;15.30;;;;;;;26.65;49.56;98339.09;5011125;28;20050;-73
2021/07/20 02:59:12;;;;;;;24.10;13.13;;;;;;;26.68;49.19;98327.03;5006587;28;20469;-74
2021/07/20 03:01:58;;;;;;;31.67;13.45;;;;;;;26.70;49.14;98333.03;5009513;28;20100;-74
2021/07/20 03:04:25;;;;;;;30.95;12.75;;;;;;;26.70;49.18;98330.25;5010758;28;20104;-75
2021/07/20 03:06:54;;;;;;;29.75;13.70;;;;;;;26.73;48.96;98337.81;4990535;28;20050;-75
2021/07/20 03:09:25;;;;;;;31.60;14.20;;;;;;;26.67;49.00;98331.06;5005422;28;20053;-75
2021/07/20 03:11:59;;;;;;;25.25;13.65;;;;;;;26.78;49.14;98341.34;5013343;28;20049;-75
2021/07/20 03:14:27;;;;;;;23.10;13.40;;;;;;;26.72;48.83;98327.00;4977858;28;20049;-73
2021/07/20 03:17:26;;;;;;;25.45;13.80;;;;;;;26.80;48.94;98333.31;4997818;28;20045;-75
2021/07/20 03:19:56;;;;;;;28.63;13.13;;;;;;;26.80;48.84;98333.31;4993642;28;20046;-76
2021/07/20 03:22:29;;;;;;;33.85;13.52;;;;;;;26.82;48.59;98339.28;4995812;28;20054;-75
2021/07/20 03:25:03;;;;;;;33.22;13.70;;;;;;;26.81;48.84;98330.09;4993954;28;20068;-76
2021/07/20 03:27:34;;;;;;;26.55;14.45;;;;;;;26.80;48.51;98334.09;5007833;28;20073;-74
2021/07/20 03:30:10;;;;;;;34.15;14.07;;;;;;;26.77;48.38;98323.72;4974677;28;20050;-75
2021/07/20 03:32:44;;;;;;;30.27;14.57;;;;;;;26.75;48.89;98335.38;5009615;28;20540;-76
2021/07/20 03:35:14;;;;;;;27.83;13.88;;;;;;;26.75;48.62;98337.34;5007844;28;20042;-74
2021/07/20 03:37:44;;;;;;;28.75;14.27;;;;;;;26.73;48.40;98332.19;5011991;28;20045;-75
2021/07/20 03:40:12;;;;;;;26.92;13.05;;;;;;;26.81;48.08;98340.50;5009729;28;20053;-75
2021/07/20 03:42:39;;;;;;;26.58;13.80;;;;;;;26.84;48.27;98342.44;4993653;28;20046;-75
2021/07/20 03:45:07;;;;;;;33.83;14.27;;;;;;;26.83;48.00;98333.25;5012240;28;20038;-75
2021/07/20 03:47:35;;;;;;;25.77;14.00;;;;;;;26.90;48.06;98349.22;5011063;28;20042;-75
2021/07/20 03:50:07;;;;;;;27.75;13.75;;;;;;;26.90;48.04;98352.81;4989942;28;20050;-74
2021/07/20 03:52:36;;;;;;;27.98;13.73;;;;;;;26.90;47.88;98349.22;4992947;28;20291;-75
2021/07/20 03:55:04;;;;;;;29.23;14.68;;;;;;;26.92;48.15;98351.59;4994449;28;20536;-75
2021/07/20 03:57:30;;;;;;;;;;;;;;;26.92;47.68;98362.81;5010759;28;20065;-75
2021/07/20 04:00:01;;;;;;;30.38;14.02;;;;;;;26.92;47.92;98358.00;5009114;28;20399;-75
2021/07/20 04:02:50;;;;;;;28.15;13.70;;;;;;;26.93;47.80;98359.59;5006077;28;20045;-75
2021/07/20 04:05:44;;;;;;;;;;;;;;;26.93;47.67;98359.59;5010524;28;20053;-73
2021/07/20 04:08:13;;;;;;;27.60;13.82;;;;;;;26.93;47.59;98359.59;4992573;28;19957;-75
2021/07/20 04:10:49;;;;;;;27.25;14.77;;;;;;;26.93;47.36;98368.00;4981489;28;20053;-74
2021/07/20 04:13:23;;;;;;;29.92;14.77;;;;;;;26.93;47.40;98370.81;5025532;28;20104;-76
2021/07/20 04:16:07;;;;;;;30.80;13.95;;;;;;;26.97;47.09;98365.94;5010779;28;20132;-75
2021/07/20 04:18:37;;;;;;;27.83;14.88;;;;;;;26.97;47.25;98373.56;4992958;28;20141;-74
2021/07/20 04:21:08;;;;;;;27.77;13.77;;;;;;;26.98;46.86;98373.13;5001928;28;20525;-75
2021/07/20 04:23:36;;;;;;;32.25;13.80;;;;;;;27.00;46.64;98369.91;4993698;28;20143;-73
2021/07/20 04:26:08;;;;;;;31.85;15.35;;;;;;;26.98;46.84;98370.31;5009893;28;20058;-74
2021/07/20 04:28:37;;;;;;;30.45;15.00;;;;;;;27.00;46.87;98373.50;5007632;28;20053;-73
2021/07/20 04:31:09;;;;;;;32.95;15.18;;;;;;;27.01;46.76;98382.72;4976564;28;20052;-75
2021/07/20 04:33:37;;;;;;;31.15;14.38;;;;;;;27.06;46.82;98381.47;4982715;28;20044;-74
2021/07/20 04:36:24;;;;;;;32.95;14.73;;;;;;;27.06;46.70;98396.25;4989876;28;20153;-75
2021/07/20 04:38:59;;;;;;;26.23;13.33;;;;;;;27.04;46.51;98385.47;4995265;28;20137;-75
2021/07/20 04:41:26;;;;;;;30.27;14.40;;;;;;;27.07;46.44;98386.63;4994487;28;20701;-74
2021/07/20 04:43:54;;;;;;;27.08;14.00;;;;;;;27.08;46.21;98388.22;5003448;28;20137;-74
2021/07/20 04:46:35;;;;;;;29.75;14.40;;;;;;;27.11;46.12;98393.00;5005017;28;20054;-75
2021/07/20 04:49:05;;;;;;;31.48;14.93;;;;;;;27.09;46.08;98397.44;5006291;28;20048;-74
2021/07/20 04:51:34;;;;;;;28.73;13.82;;;;;;;27.11;46.09;98401.41;5004590;28;20056;-75
2021/07/20 04:54:03;;;;;;;33.83;14.27;;;;;;;27.10;46.00;98394.22;4996883;28;20046;-75
2021/07/20 04:56:31;;;;;;;31.30;14.18;;;;;;;27.14;46.03;98400.56;4990129;28;20525;-75
2021/07/20 04:58:58;;;;;;;27.73;13.57;;;;;;;27.11;45.92;98395.00;4992180;28;20050;-74
2021/07/20 05:01:25;;;;;;;29.08;14.60;;;;;;;27.14;46.23;98394.97;4981629;28;20093;-80
2021/07/20 05:03:55;;;;;;;26.67;13.10;;;;;;;27.13;46.25;98392.56;4998493;28;20053;-79
2021/07/20 05:06:29;;;;;;;28.52;14.63;;;;;;;27.15;46.14;98396.53;5008636;28;20477;-79
2021/07/20 05:08:58;;;;;;;28.25;14.45;;;;;;;27.10;45.92;98399.81;4988651;28;20050;-76
2021/07/20 05:11:24;;;;;;;32.85;14.35;;;;;;;27.15;45.91;98401.34;5007061;28;20061;-77
2021/07/20 05:13:53;;;;;;;31.98;14.13;;;;;;;27.11;46.09;98392.19;5007877;28;20045;-76
2021/07/20 05:16:23;;;;;;;27.27;13.88;;;;;;;27.10;45.80;98405.44;5007712;28;20050;-77
2021/07/20 05:18:58;;;;;;;28.98;13.32;;;;;;;27.16;45.96;98402.94;4989163;28;20130;-73
2021/07/20 05:21:49;;;;;;;34.45;14.20;;;;;;;27.17;45.92;98405.31;5002342;28;20058;-75
2021/07/20 05:24:22;;;;;;;24.83;14.13;;;;;;;27.17;46.10;98405.31;5006886;28;20104;-74
2021/07/20 05:27:02;;;;;;;31.25;14.82;;;;;;;27.17;45.85;98404.53;5005455;28;20493;-75
2021/07/20 05:29:32;;;;;;;26.58;14.82;;;;;;;27.21;45.83;98410.88;4993364;28;20490;-75
2021/07/20 05:32:05;;;;;;;27.52;14.27;;;;;;;27.20;45.65;98411.31;4992049;28;20046;-73
2021/07/20 05:34:37;;;;;;;23.85;13.52;;;;;;;27.18;45.72;98406.13;4958278;28;20054;-75
2021/07/20 05:37:04;;;;;;;26.77;12.98;;;;;;;27.20;45.64;98412.09;5009116;28;20153;-75
2021/07/20 05:39:43;;;;;;;38.92;13.57;;;;;;;27.09;45.57;98400.25;5011230;28;20054;-75
2021/07/20 05:42:18;;;;;;;27.25;13.38;;;;;;;27.20;45.44;98416.91;4992770;28;20048;-75
2021/07/20 05:44:48;;;;;;;26.20;12.85;;;;;;;27.13;45.11;98418.59;4993399;28;20100;-75
2021/07/20 05:47:18;;;;;;;25.88;13.52;;;;;;;27.16;45.04;98405.72;4976520;28;20045;-75
2021/07/20 05:49:45;;;;;;;25.48;13.18;;;;;;;27.18;45.11;98409.72;4990971;28;20048;-74
2021/07/20 05:52:18;;;;;;;27.70;13.40;;;;;;;27.18;45.17;98420.94;5005379;28;20053;-76
2021/07/20 05:54:53;;;;;;;25.27;12.88;;;;;;;27.19;45.32;98418.94;5010805;28;20058;-76
2021/07/20 05:57:31;;;;;;;28.17;13.05;;;;;;;27.21;45.40;98421.31;5008080;28;20070;-75
2021/07/20 06:00:09;;;;;;;30.70;13.27;;;;;;;27.22;45.08;98417.28;5006882;28;20109;-75
2021/07/20 06:02:44;;;;;;;;;;;;;;;27.20;45.18;98414.91;5005329;28;22185;-74
2021/07/20 06:05:14;;;;;;;;;;;;;;;27.20;45.33;98426.13;5011142;28;20011;-75
2021/07/20 06:07:47;;;;;;;25.25;13.15;;;;;;;27.19;45.03;98418.94;4995376;28;19925;-76
2021/07/20 06:10:19;;;;;;;33.85;13.25;;;;;;;27.24;44.94;98426.88;5011279;28;20089;-75
2021/07/20 06:12:49;;;;;;;26.13;13.70;;;;;;;27.22;44.72;98417.28;5013311;28;20060;-75
2021/07/20 06:15:25;;;;;;;34.55;14.20;;;;;;;27.16;44.73;98417.75;4995293;28;20054;-75
2021/07/20 06:18:00;;;;;;;27.67;14.02;;;;;;;27.14;44.58;98411.78;4996384;28;20045;-75
2021/07/20 06:20:30;;;;;;;31.57;14.63;;;;;;;27.17;43.96;98424.19;4992719;28;20054;-75
2021/07/20 06:23:00;;;;;;;30.20;13.63;;;;;;;27.17;44.11;98422.16;4994607;28;20050;-76
2021/07/20 06:25:34;;;;;;;32.63;14.13;;;;;;;27.22;43.87;98422.88;5008957;28;20058;-75
2021/07/20 06:28:04;;;;;;;28.33;13.77;;;;;;;27.26;43.92;98432.84;5011978;28;20084;-75
2021/07/20 06:30:34;;;;;;;29.17;15.05;;;;;;;27.25;43.21;98433.28;5013260;28;20076;-75
2021/07/20 06:33:00;;;;;;;34.17;14.55;;;;;;;27.27;43.48;98434.44;5012004;28;20074;-75
2021/07/20 06:35:27;;;;;;;32.33;14.77;;;;;;;27.26;43.36;98427.25;4995395;28;20422;-74
2021/07/20 06:37:53;;;;;;;27.45;13.77;;;;;;;27.27;43.18;98428.81;5011097;28;20061;-75
2021/07/20 06:40:20;;;;;;;27.65;13.82;;;;;;;27.30;42.82;98430.78;5011689;28;20077;-75
2021/07/20 06:42:53;;;;;;;41.40;14.77;;;;;;;27.26;42.63;98421.63;5012064;28;20057;-75
2021/07/20 06:45:20;;;;;;;25.23;13.60;;;;;;;27.25;42.59;98417.25;5011178;28;20102;-75
2021/07/20 06:47:49;;;;;;;22.33;13.48;;;;;;;27.28;42.38;98427.59;5004833;28;20057;-75
2021/07/20 06:50:19;;;;;;;24.30;13.82;;;;;;;27.25;42.07;98428.47;5010340;28;20074;-75
2021/07/20 06:52:50;;;;;;;28.92;13.90;;;;;;;27.19;41.79;98413.31;5012527;28;20502;-75
2021/07/20 06:55:17;;;;;;;28.33;12.80;;;;;;;27.20;41.35;98437.34;4993941;28;20054;-74
2021/07/20 06:57:44;;;;;;;;;;;;;;;27.21;40.81;98424.91;5012575;28;20038;-75
2021/07/20 07:00:16;;;;;;;26.45;11.90;;;;;;;27.15;40.24;98424.59;5011575;28;19925;-74
2021/07/20 07:02:45;;;;;;;26.05;12.20;;;;;;;27.12;39.99;98431.03;4994765;28;20053;-74
2021/07/20 07:05:13;;;;;;;22.60;12.00;;;;;;;27.15;40.28;98424.59;5011445;28;20053;-74
2021/07/20 07:07:41;;;;;;;25.30;13.45;;;;;;;27.17;40.12;98441.78;5011581;28;20124;-73
2021/07/20 07:10:14;;;;;;;24.27;13.07;;;;;;;27.05;39.54;98400.28;4995340;28;20104;-75
2021/07/20 07:12:43;;;;;;;27.05;12.68;;;;;;;27.17;40.00;98424.19;5010539;28;20056;-73
2021/07/20 07:15:10;;;;;;;25.70;13.52;;;;;;;27.17;39.52;98426.97;5012674;28;20509;-74
2021/07/20 07:17:37;;;;;;;;;;;;;;;27.21;39.44;98435.31;5011442;28;20132;-74
2021/07/20 07:20:05;;;;;;;25.33;11.50;;;;;;;27.22;39.44;98434.09;5010914;28;19925;-75
2021/07/20 07:22:31;;;;;;;23.92;11.25;;;;;;;27.16;39.22;98409.34;5002506;28;20077;-75
2021/07/20 07:25:01;;;;;;;26.55;12.07;;;;;;;27.16;39.70;98426.19;4997801;28;20042;-75
2021/07/20 07:27:33;;;;;;;34.75;11.75;;;;;;;27.25;39.27;98417.25;5011815;28;20053;-75
2021/07/20 07:30:00;;;;;;;27.65;10.88;;;;;;;27.21;39.46;98416.50;5007989;28;20046;-74
2021/07/20 07:32:27;;;;;;;26.95;11.02;;;;;;;27.24;39.18;98426.88;4989364;28;20065;-76
2021/07/20 07:34:58;;;;;;;25.50;10.50;;;;;;;27.28;39.26;98436.03;5012073;28;20058;-76
2021/07/20 07:37:25;;;;;;;28.48;10.85;;;;;;;27.32;38.66;98428.38;5009703;28;20137;-76
2021/07/20 07:39:54;;;;;;;26.15;9.65;;;;;;;27.35;38.89;98428.75;5009410;28;20041;-74
2021/07/20 07:42:21;;;;;;;26.92;10.05;;;;;;;27.39;38.72;98426.66;4991020;28;20053;-75
2021/07/20 07:44:49;;;;;;;21.17;9.52;;;;;;;27.40;38.37;98425.44;5010704;28;20144;-73
2021/07/20 07:47:16;;;;;;;21.42;9.93;;;;;;;27.40;38.37;98428.25;5012226;28;20094;-74
2021/07/20 07:49:43;;;;;;;26.05;10.25;;;;;;;27.30;37.96;98419.56;4992521;28;20422;-75
2021/07/20 07:52:11;;;;;;;23.85;9.70;;;;;;;27.48;37.38;98429.75;5010941;28;20052;-74
2021/07/20 07:54:38;;;;;;;21.77;9.13;;;;;;;27.56;36.83;98433.28;5008727;28;20054;-74
2021/07/20 07:57:05;;;;;;;22.08;8.30;;;;;;;27.63;36.36;98421.94;4991903;28;20054;-74
2021/07/20 07:59:32;;;;;;;20.05;8.00;;;;;;;27.70;35.34;98419.00;5001797;28;20081;-73
2021/07/20 08:02:02;;;;;;;24.10;8.45;;;;;;;27.75;35.24;98431.75;5011639;28;20490;-74
2021/07/20 08:04:31;;;;;;;19.42;7.68;;;;;;;27.78;35.10;98432.94;4999290;28;20108;-74
2021/07/20 08:06:58;;;;;;;23.65;8.40;;;;;;;27.82;35.26;98431.66;5007204;28;20128;-73
2021/07/20 08:09:29;;;;;;;20.13;7.93;;;;;;;27.88;34.93;98438.38;4995016;28;20399;-74
2021/07/20 08:11:58;;;;;;;20.20;8.68;;;;;;;27.93;34.82;98436.28;5007129;28;20042;-73
2021/07/20 08:14:24;;;;;;;20.42;7.47;;;;;;;27.98;34.90;98436.59;4994338;28;20148;-73
2021/07/20 08:16:57;;;;;;;19.55;7.80;;;;;;;28.00;34.46;98442.59;5024031;28;20092;-73
2021/07/20 08:19:26;;;;;;;31.27;7.88;;;;;;;28.03;34.62;98435.31;5005657;28;20073;-72
2021/07/20 08:22:00;;;;;;;17.73;7.72;;;;;;;28.06;34.29;98439.31;5009210;28;20041;-74
2021/07/20 08:24:34;;;;;;;25.77;7.30;;;;;;;28.12;34.61;98444.00;5009348;28;20498;-73
2021/07/20 08:27:07;;;;;;;14.82;7.40;;;;;;;28.12;34.85;98438.38;5007843;28;20481;-74
2021/07/20 08:29:36;;;;;;;19.23;7.63;;;;;;;28.20;35.17;98443.91;4989178;28;20061;-73
2021/07/20 08:32:08;;;;;;;20.50;8.32;;;;;;;28.22;34.89;98438.66;5008916;28;20052;-74
2021/07/20 08:34:38;;;;;;;22.83;8.63;;;;;;;28.25;34.93;98441.41;5008670;28;20510;-74
2021/07/20 08:37:05;;;;;;;24.95;8.25;;;;;;;28.29;34.76;98446.97;5003977;28;20068;-73
2021/07/20 08:39:34;;;;;;;18.90;7.75;;;;;;;28.35;34.77;98438.84;5009857;28;20054;-74
2021/07/20 08:42:14;;;;;;;18.25;7.82;;;;;;;28.43;35.21;98443.91;5012155;28;20145;-74
2021/07/20 08:44:58;;;;;;;15.35;8.02;;;;;;;28.42;34.64;98438.69;5002676;28;20100;-73
2021/07/20 08:47:34;;;;;;;18.75;8.70;;;;;;;28.41;34.64;98432.28;5008394;28;20072;-74
2021/07/20 08:50:17;;;;;;;21.80;8.50;;;;;;;28.44;34.91;98445.47;4992021;28;20200;-74
2021/07/20 08:52:46;;;;;;;17.42;7.45;;;;;;;28.49;34.99;98434.97;5006477;28;20057;-74
2021/07/20 08:55:18;;;;;;;19.65;7.57;;;;;;;28.53;34.55;98438.47;5007239;28;20088;-74
2021/07/20 08:57:49;;;;;;;18.02;7.43;;;;;;;28.58;34.62;98440.81;5010118;28;20053;-74
2021/07/20 09:00:17;;;;;;;17.92;7.28;;;;;;;28.65;34.55;98449.09;4991334;28;20056;-74
2021/07/20 09:02:55;;;;;;;21.85;7.57;;;;;;;28.71;34.94;98447.34;5001811;28;20047;-74
2021/07/20 09:05:26;;;;;;;18.83;7.63;;;;;;;28.79;34.89;98441.59;5009185;28;20465;-73
2021/07/20 09:08:06;;;;;;;20.55;8.10;;;;;;;28.84;34.19;98443.94;5009735;28;20127;-74
2021/07/20 09:10:42;;;;;;;22.88;8.55;;;;;;;28.88;33.80;98441.88;5003221;28;20048;-74
2021/07/20 09:13:14;;;;;;;20.23;8.57;;;;;;;28.96;33.70;98445.31;4994660;28;20507;-73
2021/07/20 09:15:47;;;;;;;23.00;8.65;;;;;;;28.98;33.58;98446.47;4992377;28;20054;-73
2021/07/20 09:18:19;;;;;;;20.70;9.30;;;;;;;29.05;33.19;98444.75;5000116;28;20045;-74
2021/07/20 09:20:50;;;;;;;18.83;8.68;;;;;;;29.08;33.23;98444.66;5004945;28;20782;-73
2021/07/20 09:23:22;;;;;;;20.38;8.85;;;;;;;29.12;32.87;98436.94;4996612;28;20051;-73
2021/07/20 09:25:57;;;;;;;24.70;8.75;;;;;;;29.17;32.70;98446.88;5007277;28;20389;-72
2021/07/20 09:28:30;;;;;;;23.00;9.48;;;;;;;29.25;32.80;98447.50;5005403;28;20058;-72
2021/07/20 09:30:58;;;;;;;17.70;8.73;;;;;;;29.29;32.78;98442.63;5008697;28;20544;-73
2021/07/20 09:33:35;;;;;;;24.63;8.98;;;;;;;29.34;32.56;98432.84;5008977;28;20072;-73
2021/07/20 09:36:07;;;;;;;23.88;9.77;;;;;;;29.37;32.73;98449.66;4993529;28;20500;-73
2021/07/20 09:38:51;;;;;;;20.60;8.85;;;;;;;29.48;32.96;98441.00;5004071;28;20050;-86
2021/07/20 09:41:26;;;;;;;21.05;9.48;;;;;;;29.53;32.57;98440.50;5012642;28;20053;-75
2021/07/20 09:44:01;;;;;;;18.63;8.40;;;;;;;29.57;32.72;98441.19;5011919;28;20076;-74
2021/07/20 09:46:39;;;;;;;27.50;9.05;;;;;;;29.63;32.31;98435.03;5014208;28;20046;-73
2021/07/20 09:49:14;;;;;;;24.08;9.40;;;;;;;29.67;32.01;98441.38;5007636;28;20113;-73
2021/07/20 09:52:08;;;;;;;25.90;8.15;;;;;;;29.75;31.98;98442.00;5013573;28;20522;-73
2021/07/20 09:54:52;;;;;;;29.25;9.85;;;;;;;29.81;31.95;98432.56;5013186;28;20476;-74
2021/07/20 09:57:33;;;;;;;28.92;10.05;;;;;;;29.81;32.01;98431.78;5009939;28;20069;-75
2021/07/20 10:00:08;;;;;;;33.78;9.73;;;;;;;29.86;31.61;98437.69;4995075;28;20394;-74
2021/07/20 10:02:44;;;;;;;29.45;9.77;;;;;;;29.78;31.31;98427.03;5011850;28;20108;-74
2021/07/20 10:05:13;;;;;;;27.98;9.88;;;;;;;29.86;31.90;98439.69;5011933;28;20045;-74
2021/07/20 10:07:42;;;;;;;22.48;9.35;;;;;;;29.86;31.73;98426.44;5011001;28;20422;-75
2021/07/20 10:10:14;;;;;;;37.03;10.40;;;;;;;30.00;31.35;98436.53;4995362;28;20065;-74
2021/07/20 10:12:58;;;;;;;26.13;10.32;;;;;;;30.08;31.43;98439.22;5013781;28;20136;-74
2021/07/20 10:15:50;;;;;;;26.60;8.88;;;;;;;30.17;31.22;98447.03;5009197;28;20112;-74
2021/07/20 10:18:22;;;;;;;24.95;8.50;;;;;;;30.17;30.85;98430.91;4998567;28;20062;-73
2021/07/20 10:20:53;;;;;;;26.48;8.75;;;;;;;30.22;30.83;98441.66;5010628;28;20046;-74
2021/07/20 10:23:25;;;;;;;26.67;9.30;;;;;;;30.20;30.94;98432.84;5011462;28;20534;-73
2021/07/20 10:26:04;;;;;;;20.05;8.20;;;;;;;30.25;30.52;98443.59;4999072;28;20050;-74
2021/07/20 10:28:40;;;;;;;21.23;8.50;;;;;;;30.24;30.88;98413.84;5012145;28;20169;-73
2021/07/20 10:31:14;;;;;;;22.85;8.18;;;;;;;30.36;30.71;98442.50;5003854;28;20050;-74
2021/07/20 10:33:44;;;;;;;20.92;8.23;;;;;;;30.36;30.19;98414.31;5006313;28;20065;-74
2021/07/20 10:36:17;;;;;;;25.23;8.15;;;;;;;30.32;29.60;98436.19;5012581;28;20081;-74
2021/07/20 10:38:46;;;;;;;26.67;8.27;;;;;;;30.32;29.72;98441.81;5012233;28;20053;-74
2021/07/20 10:41:17;;;;;;;24.20;7.57;;;;;;;30.39;28.98;98436.78;4999768;28;20054;-74
2021/07/20 10:43:55;;;;;;;18.17;7.07;;;;;;;30.47;28.99;98442.22;4988513;28;20046;-75
2021/07/20 10:46:22;;;;;;;20.90;7.95;;;;;;;30.50;29.25;98430.84;5006959;28;20105;-73
2021/07/20 10:48:56;;;;;;;25.08;7.32;;;;;;;30.55;29.36;98429.50;5012060;28;20585;-74
2021/07/20 10:51:29;;;;;;;17.00;7.05;;;;;;;30.61;28.91;98421.31;4994720;28;20049;-74
2021/07/20 10:54:05;;;;;;;20.90;7.78;;;;;;;30.66;28.98;98426.41;5010432;28;20459;-73
2021/07/20 10:56:39;;;;;;;18.70;7.15;;;;;;;30.73;28.57;98437.50;5012442;28;20505;-73
2021/07/20 10:59:14;;;;;;;20.02;6.90;;;;;;;30.86;28.78;98422.66;5010673;28;20491;-74
2021/07/20 11:01:51;;;;;;;18.00;6.18;;;;;;;30.95;28.58;98436.88;5009211;28;20042;-74
2021/07/20 11:04:34;;;;;;;30.75;7.18;;;;;;;30.99;28.10;98434.78;5005479;28;20061;-74
2021/07/20 11:07:02;;;;;;;23.48;6.40;;;;;;;31.03;27.78;98426.19;5010636;28;20065;-74
2021/07/20 11:09:31;;;;;;;22.85;6.78;;;;;;;31.08;27.54;98420.00;5009378;28;20766;-75
2021/07/20 11:12:06;;;;;;;28.67;6.15;;;;;;;31.13;27.39;98430.72;4990087;28;20102;-75
2021/07/20 11:14:42;;;;;;;17.37;6.63;;;;;;;31.15;27.30;98425.41;4990511;28;20052;-74
2021/07/20 11:17:11;;;;;;;19.83;6.45;;;;;;;31.18;26.86;98416.03;4997096;28;20676;-73
2021/07/20 11:19:39;;;;;;;27.42;6.47;;;;;;;31.21;26.63;98412.34;5007038;28;20524;-73
2021/07/20 11:22:06;;;;;;;18.30;6.32;;;;;;;31.26;26.81;98417.44;5008886;28;20494;-74
2021/07/20 11:24:34;;;;;;;23.42;6.70;;;;;;;31.33;26.82;98410.00;5012780;28;20058;-73
2021/07/20 11:27:01;;;;;;;21.52;6.03;;;;;;;31.48;26.04;98413.16;5012512;28;20119;-72
2021/07/20 11:29:27;;;;;;;;;;;;;;;31.51;26.05;98406.63;4976062;28;20157;-73
2021/07/20 11:31:58;;;;;;;;;;;;;;;31.53;26.40;98419.03;4975234;28;19933;-72
2021/07/20 11:34:28;;;;;;;15.60;5.32;;;;;;;31.57;26.14;98406.84;4995004;28;19926;-72
2021/07/20 11:37:00;;;;;;;22.70;5.75;;;;;;;31.64;25.96;98423.53;5007871;28;20395;-73
2021/07/20 11:39:31;;;;;;;20.38;5.78;;;;;;;31.69;25.74;98418.13;5010772;28;20052;-73
2021/07/20 11:42:03;;;;;;;15.60;5.70;;;;;;;31.80;25.80;98417.00;4995111;28;20073;-74
2021/07/20 11:44:43;;;;;;;20.83;6.30;;;;;;;31.90;25.92;98415.84;5012820;28;20061;-74